Weather at Vernal Regional Airport

Public forecast

Using degrees Fahrenheit for public forecast. Weather courtesy of forecast.io.

Current aviation weather report (METAR) for Vernal Regional Airport

Retrieved 2021/06/15 20:53 UTC (26 minutes ago):

KVEL 152053Z AUTO 22008G20KT 10SM CLR 37/M05 A3016 RMK AO2 SLP131 T03721050 58017

Aviation forecast (TAF) for Vernal Regional Airport

Retrieved 2021/06/15 18:34 UTC (3 hours ago):

TAF KVEL 151732Z 1518/1618 VRB04KT P6SM FEW250 FM152000 22010G19KT P6SM FEW250 FM160300 28008KT P6SM FEW250 FM160600 VRB03KT P6SM SCT200